This is the latest recevied weather packets stored in our database for station/object PY2SDN-13. If no packets are shown the sender has not sent any weather packets the latest 1 day(s).
| Time | Temp. | Humidity | Pressure | Rain* | Wind** | Luminosity | Snow |
|---|---|---|---|---|---|---|---|
| 1778007608 | 25° C | 26% | 1013.1 hPa | 0 mm | 0.45 m/s, 124° | 0 W/m² | - |
| 1778006703 | 25° C | 26% | 1013.2 hPa | 0 mm | 0 m/s | 0 W/m² | - |
| 1778005803 | 25° C | 26% | 1013.2 hPa | 0 mm | 0.89 m/s, 121° | 0 W/m² | - |
| 1778004903 | 25.56° C | 26% | 1013.1 hPa | 0 mm | 0.89 m/s, 131° | 0 W/m² | - |
| 1778004003 | 26.11° C | 26% | 1013.1 hPa | 0 mm | 0.89 m/s, 129° | 0 W/m² | - |
| 1778003103 | 27.22° C | 26% | 1013 hPa | 0 mm | 0.89 m/s, 114° | 0 W/m² | - |
| 1778002203 | 29.44° C | 26% | 1012.9 hPa | 0 mm | 0.89 m/s, 74° | 0 W/m² | - |
| 1778001303 | 30.56° C | 26% | 1012.9 hPa | 0 mm | 0 m/s | 0 W/m² | - |
| 1778000404 | 31.11° C | 26% | 1012.9 hPa | 0 mm | 0.45 m/s, 122° | 0 W/m² | - |
| 1777999504 | 30.56° C | 26% | 1012.9 hPa | 0 mm | 0.89 m/s, 120° | 0 W/m² | - |
| 1777998604 | 30.56° C | 26% | 1013.1 hPa | 0 mm | 0.89 m/s, 146° | 0 W/m² | - |
| 1777997704 | 31.11° C | 26% | 1013.3 hPa | 0 mm | 0.89 m/s, 130° | 0 W/m² | - |
| 1777996804 | 31.11° C | 26% | 1013.4 hPa | 0 mm | 0.89 m/s, 111° | 0 W/m² | - |
| 1777995904 | 30.56° C | 26% | 1013.6 hPa | 0 mm | 0.89 m/s, 116° | 0 W/m² | - |
| 1777995004 | 32.78° C | 26% | 1013.5 hPa | 0 mm | 0.89 m/s, 122° | 0 W/m² | - |
| 1777994105 | 33.89° C | 26% | 1013.6 hPa | 0 mm | 0.45 m/s, 125° | 0 W/m² | - |
| 1777993204 | 33.33° C | 26% | 1013.4 hPa | 0 mm | 0 m/s | 0 W/m² | - |
| 1777992304 | 33.33° C | 26% | 1013.7 hPa | 0 mm | 0.45 m/s, 140° | 0 W/m² | - |
| 1777991404 | 33.33° C | 26% | 1014 hPa | 0 mm | 0.45 m/s, 128° | 0 W/m² | - |
| 1777990504 | 32.22° C | 26% | 1014.1 hPa | 0 mm | 0 m/s | 0 W/m² | - |
| 1777989604 | 32.78° C | 26% | 1014.3 hPa | 0 mm | 0.45 m/s, 137° | 0 W/m² | - |
| 1777988704 | 31.67° C | 26% | 1014.6 hPa | 0 mm | 0 m/s | 0 W/m² | - |
| 1777987804 | 30.56° C | 26% | 1014.7 hPa | 0 mm | 0 m/s | 0 W/m² | - |
| 1777986904 | 31.67° C | 26% | 1015 hPa | 0 mm | 0.89 m/s, 128° | 0 W/m² | - |
| 1777986004 | 32.22° C | 26% | 1015.1 hPa | 0 mm | 0 m/s | 0 W/m² | - |
* Rain latest hour (hover to see other rain measurements)
** Current wind speed in m/s (hover to see current wind gust speed)